createdAt,value
2024-03-23T00:00:46.278Z,7.5
2024-03-23T00:02:00.570Z,7.6
2024-03-23T00:03:14.863Z,7.1
2024-03-23T00:04:29.155Z,7
2024-03-23T00:05:43.448Z,7.4
2024-03-23T00:06:57.740Z,7.2
2024-03-23T00:08:12.033Z,6.9
2024-03-23T00:10:40.618Z,7.3
2024-03-23T00:11:54.896Z,7.4
2024-03-23T00:13:09.202Z,7.5
2024-03-23T00:14:23.495Z,7.3
2024-03-23T00:15:37.787Z,6.4
2024-03-23T00:16:51.096Z,7.4
2024-03-23T00:18:05.388Z,7.5
2024-03-23T00:19:19.681Z,6.8
2024-03-23T00:20:33.973Z,6.8
2024-03-23T00:21:47.287Z,7.3
2024-03-23T00:23:00.596Z,7.2
2024-03-23T00:24:14.888Z,6.5
2024-03-23T00:25:29.180Z,6.4
2024-03-23T00:26:43.473Z,7.9
2024-03-23T00:27:57.765Z,6.4
2024-03-23T00:29:12.058Z,6.6
2024-03-23T00:30:26.350Z,7.4
2024-03-23T00:31:40.643Z,6.1
2024-03-23T00:32:54.935Z,6.4
2024-03-23T00:34:09.228Z,6.4
2024-03-23T00:35:23.520Z,7.7
2024-03-23T00:36:37.812Z,6.1
2024-03-23T00:37:52.105Z,5.3
2024-03-23T00:40:19.706Z,7.2
2024-03-23T00:42:48.291Z,6.6
2024-03-23T00:44:01.605Z,7.7
2024-03-23T00:45:14.913Z,5.3
2024-03-23T00:46:29.206Z,7.1
2024-03-23T00:47:43.498Z,5
2024-03-23T00:48:57.790Z,5.9
2024-03-23T00:50:12.083Z,5.6
2024-03-23T00:51:26.375Z,6.9
2024-03-23T00:52:40.667Z,6.1
2024-03-23T00:53:54.960Z,7.2
2024-03-23T00:55:09.253Z,5.6
2024-03-23T00:56:22.566Z,6.7
2024-03-23T00:57:35.875Z,7
2024-03-23T00:58:50.167Z,6.5
2024-03-23T01:00:04.460Z,6.4
2024-03-23T01:01:18.752Z,6.1
2024-03-23T01:02:33.044Z,6.5
2024-03-23T01:03:47.337Z,6.9
2024-03-23T01:05:01.629Z,5.7
2024-03-23T01:06:15.922Z,6
2024-03-23T01:07:30.214Z,6.3
2024-03-23T01:08:44.507Z,6.5
2024-03-23T01:09:58.799Z,5.9
2024-03-23T01:12:27.385Z,6.4
2024-03-23T01:13:40.693Z,6.3
2024-03-23T01:14:54.986Z,6.1
2024-03-23T01:16:09.278Z,6.5
2024-03-23T01:17:23.571Z,6.7
2024-03-23T01:18:37.863Z,6.2
2024-03-23T01:19:52.156Z,6.8
2024-03-23T01:21:06.448Z,6
2024-03-23T01:22:20.742Z,6.1
2024-03-23T01:23:35.034Z,5.2
2024-03-23T01:24:49.326Z,5.3
2024-03-23T01:26:03.600Z,5.8
2024-03-23T01:27:17.911Z,5.8
2024-03-23T01:28:32.204Z,5.6
2024-03-23T01:29:45.512Z,6.4
2024-03-23T01:30:59.805Z,5.8
2024-03-23T01:32:14.097Z,5.9
2024-03-23T01:33:28.389Z,6.8
2024-03-23T01:34:42.682Z,6.5
2024-03-23T01:35:56.974Z,5.5
2024-03-23T01:37:11.267Z,5.1
2024-03-23T01:38:25.559Z,5.2
2024-03-23T01:39:39.852Z,5.2
2024-03-23T01:40:54.144Z,5.8
2024-03-23T01:42:08.437Z,4.9
2024-03-23T01:43:22.729Z,5
2024-03-23T01:44:37.021Z,5.6
2024-03-23T01:45:50.330Z,5.8
2024-03-23T01:47:04.622Z,5.4
2024-03-23T01:48:18.915Z,6.3
2024-03-23T01:49:33.207Z,6
2024-03-23T01:50:47.500Z,5.4
2024-03-23T01:52:01.792Z,6.2
2024-03-23T01:53:16.085Z,4.9
2024-03-23T01:54:30.377Z,5.1
2024-03-23T01:55:44.669Z,5.2
2024-03-23T01:56:58.962Z,5.4
2024-03-23T01:58:13.254Z,5.4
2024-03-23T01:59:27.547Z,5.1
2024-03-23T02:00:41.839Z,6
2024-03-23T02:01:55.148Z,5.6
2024-03-23T02:03:09.440Z,5.2
2024-03-23T02:04:23.734Z,5.3
2024-03-23T02:05:38.026Z,4.7
2024-03-23T02:06:52.318Z,5.5
2024-03-23T02:08:06.611Z,5.3
2024-03-23T02:09:20.903Z,5.6
2024-03-23T02:10:35.196Z,5.5
2024-03-23T02:11:49.488Z,6
2024-03-23T02:13:03.781Z,5.2
2024-03-23T02:14:18.073Z,5.2
2024-03-23T02:16:46.658Z,4.9
2024-03-23T02:17:59.967Z,4.7
2024-03-23T02:19:14.259Z,5.7
2024-03-23T02:20:28.551Z,5
2024-03-23T02:21:42.844Z,5.1
2024-03-23T02:22:57.136Z,5
2024-03-23T02:24:11.429Z,5.2
2024-03-23T02:25:25.721Z,4.8
2024-03-23T02:26:40.014Z,4.8
2024-03-23T02:27:54.306Z,5.7
2024-03-23T02:29:08.598Z,5.7
2024-03-23T02:30:22.891Z,6
2024-03-23T02:31:37.183Z,5.8
2024-03-23T02:32:51.476Z,5.5
2024-03-23T02:34:04.784Z,5
2024-03-23T02:35:19.077Z,5.3
2024-03-23T02:36:33.369Z,4.7
2024-03-23T02:37:47.662Z,5
2024-03-23T02:39:01.954Z,4.9
2024-03-23T02:40:16.246Z,5.2
2024-03-23T02:41:30.539Z,5.6
2024-03-23T02:42:44.831Z,4.5
2024-03-23T02:43:59.124Z,4.5
2024-03-23T02:46:27.709Z,4.8
2024-03-23T02:47:42.001Z,5.2
2024-03-23T02:48:56.294Z,4.9
2024-03-23T02:50:09.602Z,5
2024-03-23T02:51:23.895Z,4.7
2024-03-23T02:53:52.479Z,4.9
2024-03-23T02:55:06.773Z,4.6
2024-03-23T02:56:21.066Z,4.1
2024-03-23T02:57:35.358Z,4.5
2024-03-23T02:58:49.650Z,3.7
2024-03-23T03:00:03.943Z,3.8
2024-03-23T03:01:18.235Z,3.6
2024-03-23T03:02:32.528Z,3.7
2024-03-23T03:03:46.821Z,3.6
2024-03-23T03:05:00.135Z,4.1
2024-03-23T03:06:14.427Z,3.8
2024-03-23T03:07:28.720Z,3.9
2024-03-23T03:08:43.012Z,3.8
2024-03-23T03:09:57.305Z,3.5
2024-03-23T03:11:11.597Z,3.1
2024-03-23T03:12:25.890Z,3.5
2024-03-23T03:13:40.182Z,3
2024-03-23T03:14:54.474Z,3.6
2024-03-23T03:16:08.767Z,3.4
2024-03-23T03:17:23.060Z,2.8
2024-03-23T03:18:37.352Z,3.3
2024-03-23T03:19:51.644Z,3.5
2024-03-23T03:21:04.953Z,3.2
2024-03-23T03:22:19.245Z,2.9
2024-03-23T03:23:33.538Z,2.9
2024-03-23T03:24:47.830Z,3.2
2024-03-23T03:26:02.123Z,2.9
2024-03-23T03:27:16.415Z,2.5
2024-03-23T03:28:30.708Z,3.1
2024-03-23T03:29:45.000Z,3.3
2024-03-23T03:30:59.293Z,3.5
2024-03-23T03:32:13.585Z,3.3
2024-03-23T03:33:27.877Z,2.9
2024-03-23T03:34:42.170Z,3.3
2024-03-23T03:35:56.462Z,2.6
2024-03-23T03:37:09.771Z,2.9
2024-03-23T03:38:24.064Z,2.6
2024-03-23T03:39:38.338Z,3.1
2024-03-23T03:40:52.648Z,3.1
2024-03-23T03:42:06.941Z,2.8
2024-03-23T03:43:21.233Z,3
2024-03-23T03:44:35.526Z,2.9
2024-03-23T03:45:49.818Z,2.9
2024-03-23T03:47:04.094Z,2.7
2024-03-23T03:48:18.403Z,2.7
2024-03-23T03:49:32.696Z,3.3
2024-03-23T03:50:46.988Z,3
2024-03-23T03:52:01.281Z,2.9
2024-03-23T03:53:14.589Z,2.4
2024-03-23T03:54:28.882Z,2.6
2024-03-23T03:55:43.174Z,2.5
2024-03-23T03:56:57.466Z,2.7
2024-03-23T03:58:11.759Z,3
2024-03-23T03:59:26.052Z,3.1
2024-03-23T04:00:40.344Z,2.7
2024-03-23T04:01:54.636Z,2.7
2024-03-23T04:03:08.929Z,2.3
2024-03-23T04:04:23.221Z,2.8
2024-03-23T04:05:37.514Z,2.5
2024-03-23T04:06:51.806Z,2.7
2024-03-23T04:08:06.099Z,2.4
2024-03-23T04:09:19.393Z,2.5
2024-03-23T04:10:33.700Z,2.6
2024-03-23T04:11:47.992Z,2.6
2024-03-23T04:13:02.285Z,2.3
2024-03-23T04:14:16.577Z,2.8
2024-03-23T04:15:30.870Z,2.4
2024-03-23T04:16:45.162Z,2.7
2024-03-23T04:17:59.455Z,2.7
2024-03-23T04:19:13.747Z,2.4
2024-03-23T04:20:28.040Z,2.5
2024-03-23T04:22:56.625Z,2.4
2024-03-23T04:24:10.917Z,2.6
2024-03-23T04:25:24.226Z,2.7
2024-03-23T04:26:38.518Z,2.5
2024-03-23T04:27:52.811Z,2.6
2024-03-23T04:29:07.104Z,2.5
2024-03-23T04:30:21.397Z,2.5
2024-03-23T04:31:35.689Z,2.8
2024-03-23T04:32:49.982Z,2.7
2024-03-23T04:34:03.296Z,2.3
2024-03-23T04:35:16.610Z,2.3
2024-03-23T04:36:29.919Z,2.4
2024-03-23T04:37:44.157Z,2.1
2024-03-23T04:40:12.699Z,2.5
2024-03-23T04:41:26.938Z,2.2
2024-03-23T04:42:41.230Z,2.5
2024-03-23T04:45:09.773Z,2.6
2024-03-23T04:46:24.012Z,2.3
2024-03-23T04:47:38.261Z,2.4
2024-03-23T04:48:52.500Z,2.6
2024-03-23T04:50:05.760Z,2.3
2024-03-23T04:51:19.014Z,2.5
2024-03-23T04:52:33.253Z,2.4
2024-03-23T04:55:01.730Z,2.5
2024-03-23T04:56:15.968Z,2.7
2024-03-23T04:57:30.207Z,2.6
2024-03-23T04:58:44.446Z,2.3
2024-03-23T04:59:58.684Z,2.5
2024-03-23T05:01:12.923Z,2.5
2024-03-23T05:02:27.161Z,2.3
2024-03-23T05:03:41.400Z,2.5
2024-03-23T05:04:55.638Z,2.7
2024-03-23T05:06:09.877Z,2.4
2024-03-23T05:07:23.131Z,2.4
2024-03-23T05:08:37.370Z,2.1
2024-03-23T05:09:51.609Z,2.5
2024-03-23T05:11:05.847Z,2.2
2024-03-23T05:12:20.086Z,2.4
2024-03-23T05:14:48.563Z,2.5
2024-03-23T05:16:02.801Z,2.3
2024-03-23T05:17:17.040Z,2.6
2024-03-23T05:18:31.278Z,2.5
2024-03-23T05:19:45.517Z,2.4
2024-03-23T05:20:58.777Z,2.8
2024-03-23T05:22:12.031Z,2.4
2024-03-23T05:23:26.270Z,2.5
2024-03-23T05:24:40.508Z,2
2024-03-23T05:25:54.747Z,2.3
2024-03-23T05:27:08.985Z,2.6
2024-03-23T05:28:23.224Z,2.3
2024-03-23T05:29:37.462Z,2.2
2024-03-23T05:30:51.701Z,2.6
2024-03-23T05:32:05.940Z,2.2
2024-03-23T05:33:20.178Z,2.4
2024-03-23T05:34:34.417Z,2.4
2024-03-23T05:35:48.655Z,2.4
2024-03-23T05:37:02.894Z,2.4
2024-03-23T05:38:16.148Z,2.8
2024-03-23T05:39:30.387Z,2.2
2024-03-23T05:40:44.625Z,2.4
2024-03-23T05:41:58.864Z,2.3
2024-03-23T05:43:13.103Z,2.7
2024-03-23T05:44:27.341Z,2.1
2024-03-23T05:45:41.580Z,2.4
2024-03-23T05:46:55.818Z,2.4
2024-03-23T05:48:10.057Z,2.1
2024-03-23T05:49:24.295Z,3.2
2024-03-23T05:50:38.534Z,3
2024-03-23T05:51:52.772Z,2.6
2024-03-23T05:53:07.011Z,2.7
2024-03-23T05:54:20.266Z,2.8
2024-03-23T05:55:34.504Z,2.4
2024-03-23T05:56:48.743Z,3
2024-03-23T05:58:02.981Z,2.6
2024-03-23T05:59:17.220Z,2.4
2024-03-23T06:00:31.458Z,2.4
2024-03-23T06:01:45.697Z,2.2
2024-03-23T06:02:59.936Z,2.7
2024-03-23T06:04:14.174Z,2.6
2024-03-23T06:06:42.651Z,2.5
2024-03-23T06:07:56.875Z,2.2
2024-03-23T06:09:11.128Z,2.3
2024-03-23T06:10:24.383Z,2.5
2024-03-23T06:11:38.621Z,2.6
2024-03-23T06:12:52.861Z,2.5
2024-03-23T06:14:07.100Z,2.7
2024-03-23T06:15:21.338Z,2.2
2024-03-23T06:16:35.576Z,2.7
2024-03-23T06:17:49.815Z,2.4
2024-03-23T06:19:04.053Z,2.9
2024-03-23T06:20:18.292Z,2.9
2024-03-23T06:21:32.531Z,2.9
2024-03-23T06:22:46.769Z,3
2024-03-23T06:24:01.008Z,2.5
2024-03-23T06:25:15.246Z,2.7
2024-03-23T06:26:28.501Z,2.7
2024-03-23T06:27:42.740Z,2.5
2024-03-23T06:28:56.978Z,2.2
2024-03-23T06:30:11.217Z,2.8
2024-03-23T06:31:25.455Z,2.7
2024-03-23T06:32:39.694Z,2.4
2024-03-23T06:33:53.932Z,2.5
2024-03-23T06:36:22.409Z,3.2
2024-03-23T06:37:36.648Z,3.1
2024-03-23T06:38:50.886Z,2.7
2024-03-23T06:40:05.125Z,3.6
2024-03-23T06:41:19.363Z,3
2024-03-23T06:42:32.618Z,2.8
2024-03-23T06:43:46.857Z,2.4
2024-03-23T06:45:01.080Z,2.6
2024-03-23T06:46:15.334Z,2.8
2024-03-23T06:47:29.573Z,2.6
2024-03-23T06:48:43.811Z,2.7
2024-03-23T06:49:58.050Z,2.4
2024-03-23T06:51:12.288Z,2.5
2024-03-23T06:52:26.527Z,2.7
2024-03-23T06:53:40.766Z,2.9
2024-03-23T06:54:55.005Z,2.9
2024-03-23T06:56:09.244Z,2.9
2024-03-23T06:57:23.482Z,3
2024-03-23T06:58:36.737Z,3
2024-03-23T06:59:50.962Z,2.7
2024-03-23T07:01:05.214Z,2.7
2024-03-23T07:02:19.452Z,3.2
2024-03-23T07:03:33.691Z,3.2
2024-03-23T07:04:47.929Z,3.2
2024-03-23T07:06:02.168Z,3.3
2024-03-23T07:08:30.645Z,3
2024-03-23T07:09:44.884Z,3
2024-03-23T07:10:59.122Z,3.1
2024-03-23T07:12:13.361Z,3
2024-03-23T07:13:26.621Z,3.2
2024-03-23T07:14:40.839Z,3.6
2024-03-23T07:15:55.098Z,3.5
2024-03-23T07:17:09.336Z,3
2024-03-23T07:18:23.575Z,3.4
2024-03-23T07:19:37.814Z,3.2
2024-03-23T07:20:52.053Z,3.8
2024-03-23T07:22:06.273Z,3.2
2024-03-23T07:23:20.530Z,3.1
2024-03-23T07:24:34.769Z,3.4
2024-03-23T07:25:49.007Z,3.9
2024-03-23T07:27:03.246Z,3.2
2024-03-23T07:28:17.485Z,3.6
2024-03-23T07:29:30.739Z,3.4
2024-03-23T07:30:44.978Z,4.3
2024-03-23T07:31:59.216Z,3.2
2024-03-23T07:33:13.455Z,3.2
2024-03-23T07:34:27.693Z,3.5
2024-03-23T07:35:41.932Z,3.6
2024-03-23T07:36:56.170Z,3.4
2024-03-23T07:38:10.409Z,4.1
2024-03-23T07:39:24.648Z,3.8
2024-03-23T07:40:38.886Z,3.6
2024-03-23T07:41:53.125Z,3.4
2024-03-23T07:43:07.363Z,3.6
2024-03-23T07:44:21.579Z,3.4
2024-03-23T07:45:35.841Z,3.6
2024-03-23T07:46:49.096Z,3.8
2024-03-23T07:48:03.335Z,3.5
2024-03-23T07:49:17.573Z,3.8
2024-03-23T07:50:31.812Z,3.6
2024-03-23T07:51:46.050Z,3.2
2024-03-23T07:53:00.289Z,3.3
2024-03-23T07:54:14.528Z,3.6
2024-03-23T07:55:28.766Z,3.5
2024-03-23T07:56:43.005Z,3.3
2024-03-23T07:57:57.243Z,3.1
2024-03-23T07:59:11.482Z,3
2024-03-23T08:00:25.721Z,2.9
2024-03-23T08:01:39.959Z,3.3
2024-03-23T08:02:53.214Z,2.9
2024-03-23T08:04:07.452Z,3.4
2024-03-23T08:05:21.691Z,3.3
2024-03-23T08:06:35.929Z,3.1
2024-03-23T08:07:50.168Z,3
2024-03-23T08:09:04.406Z,2.7
2024-03-23T08:10:18.645Z,2.7
2024-03-23T08:11:32.884Z,2.6
2024-03-23T08:12:47.122Z,2.5
2024-03-23T08:14:01.361Z,2.2
2024-03-23T08:15:15.599Z,2.2
2024-03-23T08:16:29.838Z,2.3
2024-03-23T08:17:44.076Z,2.2
2024-03-23T08:20:11.570Z,1.9
2024-03-23T08:21:25.808Z,1.9
2024-03-23T08:22:40.047Z,1.9
2024-03-23T08:23:54.286Z,1.8
2024-03-23T08:25:08.524Z,1.9
2024-03-23T08:26:22.763Z,1.9
2024-03-23T08:27:37.002Z,1.8
2024-03-23T08:28:51.240Z,1.9
2024-03-23T08:30:05.479Z,1.9
2024-03-23T08:31:19.717Z,1.9
2024-03-23T08:32:33.956Z,2
2024-03-23T08:33:48.195Z,2.2
2024-03-23T08:35:01.450Z,2
2024-03-23T08:36:15.688Z,1.9
2024-03-23T08:37:29.927Z,2.1
2024-03-23T08:38:44.166Z,1.9
2024-03-23T08:39:58.404Z,2.3
2024-03-23T08:41:12.643Z,2
2024-03-23T08:42:26.882Z,2
2024-03-23T08:43:40.142Z,2.2
2024-03-23T08:44:53.396Z,1.9
2024-03-23T08:46:07.635Z,2.1
2024-03-23T08:47:21.874Z,2
2024-03-23T08:48:36.113Z,2.2
2024-03-23T08:49:50.351Z,2.3
2024-03-23T08:51:04.572Z,2.4
2024-03-23T08:52:18.829Z,2.2
2024-03-23T08:53:33.067Z,2.2
2024-03-23T08:54:47.306Z,2.1
2024-03-23T08:56:01.545Z,2.2
2024-03-23T08:57:15.784Z,2.2
2024-03-23T08:58:30.023Z,2.3
2024-03-23T08:59:44.261Z,2.1
2024-03-23T09:00:57.516Z,2
2024-03-23T09:02:11.755Z,2.4
2024-03-23T09:03:25.994Z,2.1
2024-03-23T09:04:40.233Z,2.1
2024-03-23T09:05:54.472Z,2.2
2024-03-23T09:07:08.711Z,2.1
2024-03-23T09:08:21.971Z,2.1
2024-03-23T09:09:35.231Z,2.2
2024-03-23T09:10:48.486Z,2.1
2024-03-23T09:12:02.725Z,2.1
2024-03-23T09:13:16.964Z,2.2
2024-03-23T09:14:31.202Z,2.3
2024-03-23T09:15:45.441Z,2.2
2024-03-23T09:16:59.680Z,2.4
2024-03-23T09:18:13.919Z,2.2
2024-03-23T09:19:28.157Z,2.2
2024-03-23T09:20:42.396Z,2.2
2024-03-23T09:21:56.635Z,2.2
2024-03-23T09:23:10.874Z,2.4
2024-03-23T09:24:25.113Z,2.2
2024-03-23T09:26:53.590Z,2.3
2024-03-23T09:28:06.845Z,2.3
2024-03-23T09:29:21.084Z,2.4
2024-03-23T09:30:35.322Z,2.5
2024-03-23T09:31:49.561Z,2.4
2024-03-23T09:33:03.800Z,2.5
2024-03-23T09:34:18.039Z,2.4
2024-03-23T09:35:32.278Z,2.3
2024-03-23T09:36:46.516Z,2.5
2024-03-23T09:38:00.755Z,2.3
2024-03-23T09:39:14.994Z,2.1
2024-03-23T09:41:43.471Z,2.5
2024-03-23T09:42:57.710Z,2.2
2024-03-23T09:44:10.965Z,2.3
2024-03-23T09:45:25.203Z,2.4
2024-03-23T09:46:39.442Z,2.3
2024-03-23T09:47:53.681Z,2.3
2024-03-23T09:49:07.920Z,2.1
2024-03-23T09:50:22.159Z,2.3
2024-03-23T09:51:36.398Z,2.2
2024-03-23T09:52:50.637Z,2.2
2024-03-23T09:54:04.875Z,2.1
2024-03-23T09:55:19.114Z,2
2024-03-23T09:56:33.353Z,2.5
2024-03-23T09:57:46.613Z,2.2
2024-03-23T09:58:59.868Z,2.4
2024-03-23T10:00:14.106Z,2.5
2024-03-23T10:01:28.345Z,2.2
2024-03-23T10:02:42.584Z,2.2
2024-03-23T10:03:56.822Z,2.3
2024-03-23T10:05:11.061Z,2.4
2024-03-23T10:06:25.300Z,2.1
2024-03-23T10:07:39.539Z,2.1
2024-03-23T10:08:53.777Z,2.5
2024-03-23T10:10:08.016Z,2.4
2024-03-23T10:11:22.255Z,2.2
2024-03-23T10:13:50.732Z,2.2
2024-03-23T10:15:03.987Z,2.5
2024-03-23T10:16:18.226Z,2.5
2024-03-23T10:17:32.465Z,2.5
2024-03-23T10:18:46.703Z,2.4
2024-03-23T10:20:00.942Z,2.1
2024-03-23T10:21:15.181Z,2.5
2024-03-23T10:22:29.419Z,2.2
2024-03-23T10:23:43.658Z,2.1
2024-03-23T10:24:57.897Z,2.4
2024-03-23T10:26:12.136Z,2.2
2024-03-23T10:27:26.375Z,2.3
2024-03-23T10:28:40.613Z,2.5
2024-03-23T10:29:54.852Z,2.2
2024-03-23T10:31:08.107Z,2.2
2024-03-23T10:32:22.346Z,2.1
2024-03-23T10:33:36.585Z,2.2
2024-03-23T10:34:50.823Z,2.1
2024-03-23T10:36:05.062Z,2.2
2024-03-23T10:37:19.301Z,2.2
2024-03-23T10:38:33.540Z,2.2
2024-03-23T10:39:47.778Z,2.1
2024-03-23T10:41:02.017Z,2.2
2024-03-23T10:42:16.256Z,2.2
2024-03-23T10:43:30.495Z,2.3
2024-03-23T10:44:44.733Z,2.3
2024-03-23T10:45:58.972Z,2.2
2024-03-23T10:47:12.227Z,2.2
2024-03-23T10:48:26.466Z,2.2
2024-03-23T10:49:40.705Z,2.2
2024-03-23T10:50:54.944Z,2.2
2024-03-23T10:52:09.182Z,2.2
2024-03-23T10:53:23.421Z,2.6
2024-03-23T10:54:37.660Z,2.7
2024-03-23T10:55:51.898Z,2.4
2024-03-23T10:57:05.159Z,2.6
2024-03-23T10:58:18.419Z,3
2024-03-23T10:59:31.674Z,2.7
2024-03-23T11:00:45.912Z,2.8
2024-03-23T11:02:00.151Z,3.4
2024-03-23T11:03:14.390Z,3
2024-03-23T11:04:28.629Z,3
2024-03-23T11:05:42.867Z,2.6
2024-03-23T11:06:57.106Z,3.1
2024-03-23T11:08:11.345Z,3
2024-03-23T11:09:25.584Z,2.8
2024-03-23T11:10:39.822Z,2.8
2024-03-23T11:11:54.061Z,3.3
2024-03-23T11:13:08.300Z,3.3
2024-03-23T11:14:22.539Z,3.1
2024-03-23T11:15:35.794Z,3.3
2024-03-23T11:16:50.033Z,2.9
2024-03-23T11:18:04.271Z,2.7
2024-03-23T11:19:18.510Z,2.8
2024-03-23T11:20:32.749Z,2.7
2024-03-23T11:21:46.009Z,3
2024-03-23T11:23:00.247Z,3
2024-03-23T11:24:14.486Z,3.1
2024-03-23T11:25:28.725Z,3.1
2024-03-23T11:26:42.964Z,2.6
2024-03-23T11:27:57.203Z,2.9
2024-03-23T11:29:11.441Z,2.7
2024-03-23T11:30:25.680Z,2.8
2024-03-23T11:31:38.940Z,2.9
2024-03-23T11:32:52.195Z,2.8
2024-03-23T11:34:06.434Z,2.6
2024-03-23T11:35:20.672Z,2.9
2024-03-23T11:36:34.911Z,2.8
2024-03-23T11:37:49.150Z,2.8
2024-03-23T11:39:03.389Z,2.7
2024-03-23T11:40:17.627Z,2.7
2024-03-23T11:41:31.866Z,2.5
2024-03-23T11:42:46.104Z,2.5
2024-03-23T11:44:00.343Z,2.8
2024-03-23T11:45:14.582Z,2.5
2024-03-23T11:46:28.821Z,2.5
2024-03-23T11:47:43.059Z,2.5
2024-03-23T11:48:56.314Z,2.6
2024-03-23T11:50:10.553Z,2.7
2024-03-23T11:51:24.791Z,2.8
2024-03-23T11:52:39.030Z,2.9
2024-03-23T11:53:53.269Z,2.9
2024-03-23T11:55:07.507Z,2.6
2024-03-23T11:56:21.746Z,2.6
2024-03-23T11:57:35.985Z,2.5
2024-03-23T11:58:50.223Z,2.4
2024-03-23T12:00:04.462Z,2.4
2024-03-23T12:01:18.700Z,2.4
2024-03-23T12:02:32.939Z,2.5
2024-03-23T12:03:47.177Z,2.3
2024-03-23T12:05:00.432Z,2.3
2024-03-23T12:06:14.671Z,2.3
2024-03-23T12:07:28.909Z,2.5
2024-03-23T12:09:57.387Z,2.1
2024-03-23T12:11:11.625Z,2.2
2024-03-23T12:12:25.864Z,2.5
2024-03-23T12:13:40.102Z,2.2
2024-03-23T12:14:54.341Z,2.3
2024-03-23T12:16:08.579Z,2.2
2024-03-23T12:17:22.818Z,2.1
2024-03-23T12:19:51.295Z,2
2024-03-23T12:21:04.549Z,2.2
2024-03-23T12:22:18.788Z,2.2
2024-03-23T12:23:32.048Z,2.2
2024-03-23T12:24:45.308Z,2
2024-03-23T12:25:58.562Z,2.1
2024-03-23T12:27:12.801Z,2.2
2024-03-23T12:28:27.039Z,2.2
2024-03-23T12:29:41.278Z,2.3
2024-03-23T12:30:55.517Z,2.2
2024-03-23T12:32:09.755Z,2.2
2024-03-23T12:33:23.994Z,2.1
2024-03-23T12:34:38.232Z,2.1
2024-03-23T12:35:52.471Z,2.3
2024-03-23T12:37:06.709Z,1.9
2024-03-23T12:38:20.948Z,2.1
2024-03-23T12:39:35.186Z,2
2024-03-23T12:40:49.425Z,2.3
2024-03-23T12:42:02.680Z,1.9
2024-03-23T12:43:16.918Z,1.8
2024-03-23T12:44:31.157Z,1.8
2024-03-23T12:46:59.634Z,2
2024-03-23T12:48:13.873Z,2.2
2024-03-23T12:49:28.111Z,2.3
2024-03-23T12:50:42.350Z,2
2024-03-23T12:51:56.588Z,2.1
2024-03-23T12:53:10.827Z,2.1
2024-03-23T12:54:25.065Z,2.3
2024-03-23T12:55:39.304Z,2.3
2024-03-23T12:56:53.542Z,2.1
2024-03-23T12:58:06.797Z,2.3
2024-03-23T12:59:21.035Z,2.4
2024-03-23T13:00:35.274Z,2.5
2024-03-23T13:01:49.512Z,2.6
2024-03-23T13:03:03.751Z,2.4
2024-03-23T13:04:17.989Z,2.3
2024-03-23T13:05:32.228Z,2.7
2024-03-23T13:06:46.467Z,2.4
2024-03-23T13:08:00.705Z,2.5
2024-03-23T13:09:14.944Z,2.2
2024-03-23T13:10:29.182Z,2.2
2024-03-23T13:11:43.420Z,2.3
2024-03-23T13:12:57.659Z,2.4
2024-03-23T13:14:10.913Z,2.4
2024-03-23T13:15:25.152Z,2
2024-03-23T13:16:39.392Z,2.1
2024-03-23T13:17:53.630Z,1.9
2024-03-23T13:19:07.869Z,2
2024-03-23T13:20:22.107Z,2.5
2024-03-23T13:21:36.345Z,2
2024-03-23T13:22:50.584Z,2.2
2024-03-23T13:24:04.822Z,2.5
2024-03-23T13:25:19.061Z,2
2024-03-23T13:26:33.299Z,2.1
2024-03-23T13:27:47.538Z,2.1
2024-03-23T13:29:01.776Z,2.3
2024-03-23T13:30:15.031Z,2.2
2024-03-23T13:31:29.270Z,2
2024-03-23T13:32:43.508Z,2
2024-03-23T13:33:57.746Z,2.1
2024-03-23T13:35:11.985Z,2.1
2024-03-23T13:36:26.223Z,2.4
2024-03-23T13:37:40.462Z,2.1
2024-03-23T13:38:54.700Z,1.9
2024-03-23T13:40:08.939Z,1.9
2024-03-23T13:41:23.177Z,2.2
2024-03-23T13:42:37.416Z,2.1
2024-03-23T13:43:51.654Z,2.2
2024-03-23T13:45:05.893Z,2.1
2024-03-23T13:46:19.147Z,2.2
2024-03-23T13:47:33.385Z,2
2024-03-23T13:48:47.624Z,2
2024-03-23T13:50:00.884Z,2.1
2024-03-23T13:51:14.139Z,2.2
2024-03-23T13:52:28.377Z,1.7
2024-03-23T13:53:42.615Z,2.1
2024-03-23T13:54:56.854Z,2.1
2024-03-23T13:56:11.092Z,2.1
2024-03-23T13:57:25.331Z,1.8
2024-03-23T13:58:39.569Z,1.9
2024-03-23T13:59:53.807Z,2.1
2024-03-23T14:01:08.046Z,2.2
2024-03-23T14:02:22.285Z,2
2024-03-23T14:03:36.523Z,2.3
2024-03-23T14:04:50.761Z,2.3
2024-03-23T14:06:05.000Z,2.3
2024-03-23T14:07:18.254Z,2
2024-03-23T14:08:32.493Z,2
2024-03-23T14:09:46.712Z,2
2024-03-23T14:11:00.970Z,2.4
2024-03-23T14:12:15.208Z,2.4
2024-03-23T14:13:29.447Z,1.9
2024-03-23T14:14:42.706Z,2.7
2024-03-23T14:15:55.966Z,2.4
2024-03-23T14:17:09.221Z,2.2
2024-03-23T14:18:23.459Z,2.4
2024-03-23T14:19:37.697Z,2.8
2024-03-23T14:20:51.936Z,2.6
2024-03-23T14:23:20.412Z,2.3
2024-03-23T14:24:34.651Z,2.3
2024-03-23T14:25:48.890Z,2.5
2024-03-23T14:27:03.101Z,2.3
2024-03-23T14:28:17.366Z,2.5
2024-03-23T14:30:45.843Z,2.6
2024-03-23T14:31:59.103Z,2.9
2024-03-23T14:33:12.358Z,2.9
2024-03-23T14:34:26.596Z,2.9
2024-03-23T14:35:40.835Z,2.6
2024-03-23T14:36:55.073Z,2.6
2024-03-23T14:38:09.312Z,3
2024-03-23T14:39:23.550Z,3
2024-03-23T14:40:37.789Z,2.8
2024-03-23T14:41:52.027Z,2.6
2024-03-23T14:43:06.266Z,2.7
2024-03-23T14:45:33.764Z,3.3
2024-03-23T14:46:47.019Z,3.3
2024-03-23T14:48:01.257Z,2.8
2024-03-23T14:49:15.496Z,2.9
2024-03-23T14:50:29.735Z,2.8
2024-03-23T14:51:43.973Z,3
2024-03-23T14:52:58.212Z,2.7
2024-03-23T14:54:12.450Z,2.8
2024-03-23T14:55:26.689Z,2.6
2024-03-23T14:56:40.927Z,2.2
2024-03-23T14:57:54.187Z,2.2
2024-03-23T15:00:21.680Z,2.2
2024-03-23T15:01:35.919Z,2.2
2024-03-23T15:02:50.158Z,2.3
2024-03-23T15:04:04.396Z,2.6
2024-03-23T15:05:18.635Z,2.3
2024-03-23T15:06:32.873Z,2.3
2024-03-23T15:07:47.112Z,2.3
2024-03-23T15:09:01.351Z,2.2
2024-03-23T15:10:15.589Z,2.6
2024-03-23T15:11:29.828Z,2.3
2024-03-23T15:12:44.067Z,2.6
2024-03-23T15:15:12.544Z,2.5
2024-03-23T15:16:25.804Z,2.5
2024-03-23T15:17:40.042Z,2.7
2024-03-23T15:18:53.297Z,2.6
2024-03-23T15:20:07.536Z,2.5
2024-03-23T15:21:21.774Z,2.7
2024-03-23T15:22:36.013Z,2.9
2024-03-23T15:23:50.252Z,2.6
2024-03-23T15:25:04.491Z,2.7
2024-03-23T15:26:18.730Z,2.8
2024-03-23T15:27:32.968Z,2.6
2024-03-23T15:30:00.467Z,2.6
2024-03-23T15:31:13.727Z,2.8
2024-03-23T15:32:27.966Z,2.8
2024-03-23T15:33:42.204Z,2.5
2024-03-23T15:34:56.443Z,2.7
2024-03-23T15:36:10.682Z,2.7
2024-03-23T15:37:24.921Z,2.5
2024-03-23T15:38:39.159Z,2.4
2024-03-23T15:39:53.398Z,2.4
2024-03-23T15:41:07.637Z,2.6
2024-03-23T15:42:20.897Z,2.5
2024-03-23T15:43:34.151Z,2.3
2024-03-23T15:44:48.390Z,2.4
2024-03-23T15:46:02.629Z,2.2
2024-03-23T15:47:16.867Z,2.5
2024-03-23T15:48:31.106Z,2.8
2024-03-23T15:49:45.345Z,2.5
2024-03-23T15:50:59.584Z,2.8
2024-03-23T15:52:13.822Z,2.4
2024-03-23T15:53:28.061Z,2.5
2024-03-23T15:54:42.300Z,2.4
2024-03-23T15:55:56.538Z,2.3
2024-03-23T15:57:10.777Z,2.5
2024-03-23T15:58:25.016Z,2.3
2024-03-23T15:59:38.270Z,2.3
2024-03-23T16:00:52.489Z,2.5
2024-03-23T16:02:06.748Z,2.5
2024-03-23T16:03:20.987Z,2.2
2024-03-23T16:04:35.225Z,2.6
2024-03-23T16:07:03.703Z,2.4
2024-03-23T16:08:17.941Z,2.3
2024-03-23T16:09:32.180Z,2.4
2024-03-23T16:10:46.419Z,2.6
2024-03-23T16:12:00.658Z,2.6
2024-03-23T16:13:14.896Z,2.8
2024-03-23T16:14:29.135Z,2.5
2024-03-23T16:15:42.379Z,2.7
2024-03-23T16:16:56.628Z,2.7
2024-03-23T16:18:10.867Z,2.5
2024-03-23T16:19:25.106Z,2.5
2024-03-23T16:20:39.344Z,2.7
2024-03-23T16:21:53.583Z,2.9
2024-03-23T16:24:22.061Z,2.6
2024-03-23T16:25:36.299Z,2.6
2024-03-23T16:26:50.538Z,2.7
2024-03-23T16:28:03.798Z,2.6
2024-03-23T16:29:17.053Z,2.9
2024-03-23T16:30:31.291Z,2.9
2024-03-23T16:31:45.530Z,2.5
2024-03-23T16:32:59.769Z,2.9
2024-03-23T16:34:14.008Z,3
2024-03-23T16:35:28.246Z,2.9
2024-03-23T16:36:42.485Z,2.9
2024-03-23T16:37:56.724Z,2.5
2024-03-23T16:39:10.962Z,2.7
2024-03-23T16:40:25.201Z,2.5
2024-03-23T16:41:39.439Z,2.6
2024-03-23T16:42:53.678Z,2.5
2024-03-23T16:44:07.917Z,2.5
2024-03-23T16:45:21.172Z,2.4
2024-03-23T16:46:35.410Z,2.7
2024-03-23T16:47:49.649Z,2.4
2024-03-23T16:49:03.888Z,2.5
2024-03-23T16:50:18.126Z,3
2024-03-23T16:51:32.365Z,2.7
2024-03-23T16:52:45.625Z,2.5
2024-03-23T16:53:58.880Z,2.5
2024-03-23T16:55:13.119Z,2.7
2024-03-23T16:56:27.357Z,2.8
2024-03-23T16:57:41.596Z,2.5
2024-03-23T16:58:55.835Z,2.9
2024-03-23T17:00:10.074Z,2.7
2024-03-23T17:01:24.312Z,2.6
2024-03-23T17:02:38.551Z,3.1
2024-03-23T17:03:52.790Z,2.8
2024-03-23T17:05:07.028Z,3.2
2024-03-23T17:06:21.267Z,3.2
2024-03-23T17:07:35.506Z,2.7
2024-03-23T17:08:49.745Z,3.1
2024-03-23T17:10:02.999Z,2.9
2024-03-23T17:11:17.238Z,3
2024-03-23T17:12:31.477Z,2.9
2024-03-23T17:13:45.715Z,3
2024-03-23T17:14:59.954Z,2.9
2024-03-23T17:16:14.193Z,3
2024-03-23T17:17:27.453Z,3.4
2024-03-23T17:18:40.713Z,3.1
2024-03-23T17:19:53.968Z,3.1
2024-03-23T17:21:08.207Z,3.6
2024-03-23T17:22:22.446Z,3.6
2024-03-23T17:23:36.684Z,4
2024-03-23T17:24:50.923Z,3.1
2024-03-23T17:26:05.162Z,3.1
2024-03-23T17:28:33.639Z,2.2
2024-03-23T17:29:47.878Z,2
2024-03-23T17:31:02.117Z,2.1
2024-03-23T17:32:16.356Z,2.1
2024-03-23T17:33:30.594Z,2.3
2024-03-23T17:34:44.833Z,2.1
2024-03-23T17:35:58.088Z,2.1
2024-03-23T17:37:12.327Z,2.6
2024-03-23T17:38:26.565Z,2.5
2024-03-23T17:39:40.804Z,2.6
2024-03-23T17:40:55.043Z,2.4
2024-03-23T17:43:23.521Z,2.5
2024-03-23T17:44:37.759Z,2.5
2024-03-23T17:45:51.998Z,2.4
2024-03-23T17:47:06.237Z,2.7